createdAt,value
2022-12-04T00:01:20.553Z,24.90
2022-12-04T00:03:48.601Z,27.47
2022-12-04T00:06:17.814Z,23.83
2022-12-04T00:08:46.292Z,22.53
2022-12-04T00:11:17.066Z,24.83
2022-12-04T00:13:45.322Z,23.10
2022-12-04T00:16:14.788Z,25.10
2022-12-04T00:18:42.780Z,22.60
2022-12-04T00:21:13.130Z,21.97
2022-12-04T00:23:41.433Z,24.57
2022-12-04T00:26:10.829Z,22.17
2022-12-04T00:28:39.928Z,24.43
2022-12-04T00:31:08.785Z,23.57
2022-12-04T00:33:36.643Z,24.00
2022-12-04T00:36:07.057Z,25.73
2022-12-04T00:38:34.808Z,21.07
2022-12-04T00:41:02.546Z,22.33
2022-12-04T00:43:31.185Z,18.50
2022-12-04T00:46:00.224Z,23.73
2022-12-04T00:48:27.968Z,21.30
2022-12-04T00:50:55.601Z,20.17
2022-12-04T00:53:23.563Z,22.53
2022-12-04T00:55:51.300Z,22.17
2022-12-04T00:58:18.954Z,22.27
2022-12-04T01:00:46.677Z,20.73
2022-12-04T01:03:15.763Z,19.87
2022-12-04T01:05:45.441Z,19.93
2022-12-04T01:08:13.950Z,18.87
2022-12-04T01:10:42.945Z,19.80
2022-12-04T01:13:10.719Z,22.10
2022-12-04T01:15:40.052Z,19.60
2022-12-04T01:18:07.804Z,22.60
2022-12-04T01:20:36.971Z,22.53
2022-12-04T01:23:04.600Z,22.27
2022-12-04T01:25:32.273Z,21.37
2022-12-04T01:27:59.904Z,16.43
2022-12-04T01:30:27.519Z,19.63
2022-12-04T01:32:55.186Z,19.50
2022-12-04T01:35:22.912Z,19.37
2022-12-04T01:37:51.871Z,23.67
2022-12-04T01:40:21.044Z,21.50
2022-12-04T01:42:48.707Z,17.90
2022-12-04T01:45:44.126Z,18.17
2022-12-04T01:48:17.355Z,18.63
2022-12-04T01:50:45.507Z,16.23
2022-12-04T01:53:15.185Z,18.43
2022-12-04T01:55:43.458Z,18.63
2022-12-04T01:58:11.335Z,17.13
2022-12-04T02:00:39.129Z,18.47
2022-12-04T02:03:06.886Z,17.07
2022-12-04T02:05:34.615Z,17.33
2022-12-04T02:08:05.444Z,17.13
2022-12-04T02:10:43.069Z,16.70
2022-12-04T02:13:15.992Z,16.70
2022-12-04T02:15:50.117Z,13.90
2022-12-04T02:18:22.750Z,13.77
2022-12-04T02:20:54.198Z,16.00
2022-12-04T02:23:33.921Z,14.53
2022-12-04T02:26:10.868Z,13.50
2022-12-04T02:28:43.564Z,15.27
2022-12-04T02:31:14.635Z,14.87
2022-12-04T02:33:45.897Z,16.53
2022-12-04T02:36:16.426Z,13.90
2022-12-04T02:38:45.773Z,15.43
2022-12-04T02:41:16.937Z,15.37
2022-12-04T02:43:47.891Z,17.90
2022-12-04T02:46:19.952Z,19.53
2022-12-04T02:48:50.711Z,16.40
2022-12-04T02:51:20.804Z,16.33
2022-12-04T02:53:51.380Z,17.23
2022-12-04T02:56:22.428Z,15.17
2022-12-04T02:58:54.455Z,15.97
2022-12-04T03:01:25.256Z,14.77
2022-12-04T03:03:56.656Z,13.57
2022-12-04T03:06:25.173Z,18.87
2022-12-04T03:08:54.772Z,18.13
2022-12-04T03:11:22.779Z,24.07
2022-12-04T03:13:54.455Z,21.33
2022-12-04T03:16:24.488Z,20.30
2022-12-04T03:18:55.257Z,20.13
2022-12-04T03:21:25.476Z,18.87
2022-12-04T03:23:56.385Z,22.87
2022-12-04T03:26:27.089Z,20.27
2022-12-04T03:28:59.851Z,21.03
2022-12-04T03:31:33.798Z,21.50
2022-12-04T03:34:02.814Z,18.67
2022-12-04T03:36:34.567Z,22.07
2022-12-04T03:39:04.800Z,20.73
2022-12-04T03:41:34.453Z,19.60
2022-12-04T03:44:07.928Z,22.90
2022-12-04T03:46:37.685Z,20.17
2022-12-04T03:49:10.491Z,20.00
2022-12-04T03:51:40.667Z,16.00
2022-12-04T03:54:11.987Z,18.37
2022-12-04T03:56:41.592Z,20.47
2022-12-04T03:59:12.539Z,20.43
2022-12-04T04:01:44.506Z,18.87
2022-12-04T04:04:15.584Z,18.40
2022-12-04T04:06:47.201Z,16.83
2022-12-04T04:09:17.361Z,18.87
2022-12-04T04:11:48.616Z,20.50
2022-12-04T04:14:37.816Z,20.57
2022-12-04T04:17:27.177Z,17.60
2022-12-04T04:20:20.424Z,18.27
2022-12-04T04:23:07.783Z,19.07
2022-12-04T04:25:37.933Z,20.00
2022-12-04T04:28:05.629Z,20.87
2022-12-04T04:30:35.841Z,20.80
2022-12-04T04:33:08.136Z,19.87
2022-12-04T04:35:44.307Z,18.63
2022-12-04T04:38:17.117Z,19.60
2022-12-04T04:40:50.776Z,19.97
2022-12-04T04:43:21.387Z,17.83
2022-12-04T04:45:54.986Z,19.83
2022-12-04T04:48:25.191Z,19.47
2022-12-04T04:50:53.121Z,19.87
2022-12-04T04:53:22.847Z,18.10
2022-12-04T04:55:50.959Z,20.23
2022-12-04T04:58:21.707Z,18.80
2022-12-04T05:00:58.174Z,19.17
2022-12-04T05:03:25.927Z,19.03
2022-12-04T05:05:53.618Z,16.97
2022-12-04T05:08:21.801Z,19.93
2022-12-04T05:10:49.579Z,17.33
2022-12-04T05:13:18.377Z,17.50
2022-12-04T05:15:46.250Z,18.10
2022-12-04T05:18:15.346Z,18.70
2022-12-04T05:20:41.985Z,17.53
2022-12-04T05:23:09.916Z,18.43
2022-12-04T05:25:37.490Z,18.70
2022-12-04T05:28:05.169Z,16.87
2022-12-04T05:30:32.769Z,18.30
2022-12-04T05:33:00.361Z,18.27
2022-12-04T05:35:29.417Z,19.77
2022-12-04T05:37:57.024Z,17.60
2022-12-04T05:40:24.787Z,18.40
2022-12-04T05:42:52.405Z,15.97
2022-12-04T05:45:19.944Z,17.77
2022-12-04T05:47:47.628Z,17.83
2022-12-04T05:50:15.374Z,20.27
2022-12-04T05:52:44.472Z,19.00
2022-12-04T05:55:12.093Z,21.00
2022-12-04T05:57:39.747Z,16.50
2022-12-04T06:00:08.710Z,18.97
2022-12-04T06:02:36.586Z,19.53
2022-12-04T06:05:04.627Z,20.20
2022-12-04T06:07:32.282Z,19.13
2022-12-04T06:10:01.217Z,19.60
2022-12-04T06:12:28.798Z,17.37
2022-12-04T06:14:56.616Z,21.07
2022-12-04T06:17:24.246Z,20.10
2022-12-04T06:19:53.428Z,19.33
2022-12-04T06:22:21.281Z,16.83
2022-12-04T06:24:49.089Z,19.53
2022-12-04T06:27:33.513Z,20.20
2022-12-04T06:30:01.167Z,19.63
2022-12-04T06:32:28.813Z,21.83
2022-12-04T06:34:56.515Z,17.87
2022-12-04T06:37:25.792Z,20.33
2022-12-04T06:39:53.680Z,19.57
2022-12-04T06:42:22.825Z,18.07
2022-12-04T06:44:50.447Z,17.83
2022-12-04T06:47:18.344Z,19.83
2022-12-04T06:49:46.487Z,19.60
2022-12-04T06:52:14.088Z,20.47
2022-12-04T06:54:42.032Z,21.43
2022-12-04T06:57:09.814Z,19.87
2022-12-04T06:59:39.104Z,22.37
2022-12-04T07:02:06.799Z,20.37
2022-12-04T07:04:34.490Z,18.67
2022-12-04T07:07:02.247Z,19.43
2022-12-04T07:09:29.906Z,19.00
2022-12-04T07:11:57.528Z,21.20
2022-12-04T07:14:25.166Z,19.13
2022-12-04T07:16:54.189Z,19.10
2022-12-04T07:19:21.918Z,20.27
2022-12-04T07:21:49.582Z,20.43
2022-12-04T07:24:18.284Z,21.63
2022-12-04T07:26:46.357Z,17.97
2022-12-04T07:29:14.110Z,21.17
2022-12-04T07:31:41.800Z,21.10
2022-12-04T07:34:10.862Z,18.90
2022-12-04T07:36:40.086Z,18.47
2022-12-04T07:39:07.894Z,17.53
2022-12-04T07:41:36.183Z,19.80
2022-12-04T07:44:03.735Z,16.17
2022-12-04T07:46:31.560Z,18.50
2022-12-04T07:49:00.015Z,19.60
2022-12-04T07:51:30.074Z,17.27
2022-12-04T07:54:03.116Z,19.27
2022-12-04T07:56:31.847Z,19.40
2022-12-04T07:59:00.282Z,19.77
2022-12-04T08:01:28.197Z,17.80
2022-12-04T08:03:57.778Z,20.93
2022-12-04T08:06:27.298Z,17.37
2022-12-04T08:08:57.227Z,19.33
2022-12-04T08:11:26.363Z,17.80
2022-12-04T08:13:55.545Z,19.77
2022-12-04T08:16:23.442Z,18.33
2022-12-04T08:18:51.187Z,17.10
2022-12-04T08:21:21.744Z,19.53
2022-12-04T08:23:51.047Z,19.53
2022-12-04T08:26:21.723Z,18.03
2022-12-04T08:28:49.593Z,20.90
2022-12-04T08:31:19.370Z,20.40
2022-12-04T08:33:48.368Z,18.40
2022-12-04T08:36:19.147Z,17.20
2022-12-04T08:38:47.596Z,17.63
2022-12-04T08:41:17.178Z,20.93
2022-12-04T08:43:46.306Z,19.27
2022-12-04T08:46:15.645Z,20.47
2022-12-04T08:48:43.360Z,16.87
2022-12-04T08:51:15.820Z,18.20
2022-12-04T08:53:43.515Z,18.63
2022-12-04T08:56:11.594Z,18.43
2022-12-04T08:58:39.333Z,20.07
2022-12-04T09:01:09.785Z,19.20
2022-12-04T09:03:37.629Z,19.00
2022-12-04T09:06:06.518Z,20.73
2022-12-04T09:08:34.697Z,17.63
2022-12-04T09:11:06.251Z,17.03
2022-12-04T09:13:34.331Z,18.60
2022-12-04T09:16:05.014Z,20.00
2022-12-04T09:18:34.361Z,22.43
2022-12-04T09:21:03.538Z,21.30
2022-12-04T09:23:31.299Z,22.77
2022-12-04T09:25:59.008Z,17.70
2022-12-04T09:28:26.724Z,18.20
2022-12-04T09:30:58.978Z,16.70
2022-12-04T09:33:26.775Z,18.93
2022-12-04T09:35:55.860Z,19.93
2022-12-04T09:38:23.596Z,18.10
2022-12-04T09:40:53.827Z,16.13
2022-12-04T09:43:28.775Z,21.10
2022-12-04T09:46:00.179Z,18.17
2022-12-04T09:48:32.691Z,20.80
2022-12-04T09:51:02.557Z,18.97
2022-12-04T09:53:36.030Z,18.47
2022-12-04T09:56:06.068Z,19.63
2022-12-04T09:58:37.446Z,17.43
2022-12-04T10:01:06.214Z,18.33
2022-12-04T10:03:34.388Z,18.87
2022-12-04T10:06:08.216Z,17.43
2022-12-04T10:08:37.568Z,20.30
2022-12-04T10:11:12.211Z,17.73
2022-12-04T10:14:05.642Z,18.43
2022-12-04T10:16:39.510Z,20.97
2022-12-04T10:19:11.956Z,19.63
2022-12-04T10:21:50.927Z,18.00
2022-12-04T10:24:28.093Z,23.20
2022-12-04T10:26:57.559Z,20.43
2022-12-04T10:29:27.934Z,18.47
2022-12-04T10:31:57.263Z,18.73
2022-12-04T10:34:26.661Z,18.07
2022-12-04T10:36:56.648Z,18.43
2022-12-04T10:39:26.538Z,18.60
2022-12-04T10:41:58.725Z,18.07
2022-12-04T10:44:26.548Z,15.37
2022-12-04T10:46:56.711Z,18.77
2022-12-04T10:49:27.454Z,17.97
2022-12-04T10:51:56.907Z,20.07
2022-12-04T10:54:32.153Z,17.60
2022-12-04T10:57:01.352Z,17.80
2022-12-04T10:59:30.265Z,20.97
2022-12-04T11:02:06.537Z,16.83
2022-12-04T11:04:35.406Z,19.03
2022-12-04T11:07:06.844Z,18.17
2022-12-04T11:09:34.892Z,20.10
2022-12-04T11:12:08.160Z,17.57
2022-12-04T11:14:35.885Z,18.43
2022-12-04T11:17:06.177Z,21.60
2022-12-04T11:19:36.232Z,20.10
2022-12-04T11:22:13.298Z,18.63
2022-12-04T11:24:42.690Z,18.00
2022-12-04T11:27:18.291Z,17.37
2022-12-04T11:29:47.489Z,20.17
2022-12-04T11:32:21.608Z,22.60
2022-12-04T11:34:51.782Z,17.87
2022-12-04T11:37:23.236Z,19.50
2022-12-04T11:39:51.450Z,21.37
2022-12-04T11:42:23.756Z,19.90
2022-12-04T11:44:53.259Z,19.50
2022-12-04T11:47:23.384Z,20.03
2022-12-04T11:50:01.490Z,19.00
2022-12-04T11:52:39.918Z,18.47
2022-12-04T11:55:12.666Z,20.97
2022-12-04T11:57:44.707Z,19.27
2022-12-04T12:00:15.231Z,18.57
2022-12-04T12:02:54.621Z,16.13
2022-12-04T12:05:41.643Z,18.47
2022-12-04T12:08:15.315Z,16.53
2022-12-04T12:10:48.283Z,18.80
2022-12-04T12:13:22.218Z,18.13
2022-12-04T12:15:53.945Z,21.63
2022-12-04T12:18:35.875Z,18.50
2022-12-04T12:21:07.520Z,19.13
2022-12-04T12:23:47.390Z,18.47
2022-12-04T12:26:16.825Z,19.27
2022-12-04T12:29:08.827Z,20.80
2022-12-04T12:31:52.841Z,20.63
2022-12-04T12:34:26.107Z,18.00
2022-12-04T12:37:00.548Z,20.90
2022-12-04T12:39:36.008Z,20.87
2022-12-04T12:42:03.591Z,22.10
2022-12-04T12:44:36.315Z,20.67
2022-12-04T12:47:08.963Z,18.57
2022-12-04T12:49:42.439Z,18.77
2022-12-04T12:52:17.173Z,17.53
2022-12-04T12:54:49.431Z,20.50
2022-12-04T12:57:19.947Z,19.47
2022-12-04T12:59:50.686Z,25.47
2022-12-04T13:02:29.172Z,23.83
2022-12-04T13:04:59.121Z,22.00
2022-12-04T13:07:30.996Z,23.80
2022-12-04T13:10:03.725Z,24.10
2022-12-04T13:12:38.902Z,24.23
2022-12-04T13:15:07.256Z,23.10
2022-12-04T13:17:37.234Z,26.10
2022-12-04T13:20:10.408Z,23.83
2022-12-04T13:22:44.355Z,20.43
2022-12-04T13:25:20.482Z,22.40
2022-12-04T13:27:58.664Z,29.40
2022-12-04T13:30:31.579Z,25.43
2022-12-04T13:33:29.146Z,21.20
2022-12-04T13:36:13.838Z,26.73
2022-12-04T13:38:56.483Z,26.53
2022-12-04T13:41:28.550Z,27.17
2022-12-04T13:43:57.531Z,27.33
2022-12-04T13:46:30.214Z,24.13
2022-12-04T13:49:09.244Z,24.47
2022-12-04T13:51:38.961Z,24.47
2022-12-04T13:54:25.511Z,25.37
2022-12-04T13:56:56.817Z,24.07
2022-12-04T13:59:35.475Z,24.70
2022-12-04T14:02:08.233Z,23.47
2022-12-04T14:04:41.673Z,25.43
2022-12-04T14:07:24.048Z,23.30
2022-12-04T14:09:53.515Z,26.43
2022-12-04T14:12:28.185Z,23.47
2022-12-04T14:14:58.111Z,22.90
2022-12-04T14:17:27.838Z,23.13
2022-12-04T14:20:00.757Z,28.03
2022-12-04T14:22:41.530Z,24.33
2022-12-04T14:25:23.893Z,24.33
2022-12-04T14:27:54.287Z,21.40
2022-12-04T14:30:25.322Z,21.77
2022-12-04T14:32:55.515Z,22.83
2022-12-04T14:35:25.033Z,24.17
2022-12-04T14:37:57.061Z,21.43
2022-12-04T14:40:27.864Z,22.17
2022-12-04T14:42:57.130Z,23.43
2022-12-04T14:45:33.424Z,19.03
2022-12-04T14:48:19.616Z,20.57
2022-12-04T14:50:52.952Z,20.67
2022-12-04T14:53:29.848Z,18.10
2022-12-04T14:56:07.129Z,17.50
2022-12-04T14:58:39.014Z,21.03
2022-12-04T15:01:08.571Z,20.30
2022-12-04T15:03:38.165Z,23.30
2022-12-04T15:06:07.674Z,23.57
2022-12-04T15:08:36.274Z,27.30
2022-12-04T15:11:24.758Z,24.07
2022-12-04T15:13:53.840Z,23.57
2022-12-04T15:16:23.313Z,21.50
2022-12-04T15:18:55.110Z,17.80
2022-12-04T15:21:23.060Z,18.47
2022-12-04T15:23:50.947Z,17.57
2022-12-04T15:26:20.879Z,18.33
2022-12-04T15:28:53.206Z,20.73
2022-12-04T15:31:23.605Z,18.40
2022-12-04T15:33:53.393Z,19.17
2022-12-04T15:36:37.667Z,19.37
2022-12-04T15:39:05.962Z,22.10
2022-12-04T15:41:35.205Z,18.17
2022-12-04T15:44:04.744Z,19.57
2022-12-04T15:46:34.406Z,20.83
2022-12-04T15:49:14.370Z,20.23
2022-12-04T15:51:42.177Z,17.43
2022-12-04T15:54:15.105Z,20.80
2022-12-04T15:56:42.959Z,18.10
2022-12-04T15:59:18.166Z,17.47
2022-12-04T16:01:46.044Z,20.20
2022-12-04T16:04:22.307Z,17.90
2022-12-04T16:06:53.591Z,16.87
2022-12-04T16:09:23.519Z,20.17
2022-12-04T16:11:59.450Z,18.40
2022-12-04T16:14:28.567Z,20.33
2022-12-04T16:17:05.527Z,18.20
2022-12-04T16:19:35.834Z,19.67
2022-12-04T16:22:06.408Z,16.73
2022-12-04T16:24:34.023Z,20.30
2022-12-04T16:27:02.162Z,17.23
2022-12-04T16:29:31.497Z,18.57
2022-12-04T16:32:03.016Z,20.50
2022-12-04T16:34:31.328Z,24.50
2022-12-04T16:36:59.845Z,26.17
2022-12-04T16:39:27.480Z,23.97
2022-12-04T16:41:55.118Z,21.47
2022-12-04T16:44:22.914Z,19.67
2022-12-04T16:46:52.204Z,21.40
2022-12-04T16:49:19.928Z,22.87
2022-12-04T16:51:50.488Z,19.97
2022-12-04T16:54:20.360Z,23.73
2022-12-04T16:56:48.092Z,24.40
2022-12-04T16:59:15.675Z,23.53
2022-12-04T17:01:45.367Z,23.10
2022-12-04T17:04:15.939Z,22.00
2022-12-04T17:06:43.888Z,23.03
2022-12-04T17:09:11.623Z,23.20
2022-12-04T17:11:39.673Z,22.43
2022-12-04T17:14:08.076Z,20.90
2022-12-04T17:16:36.093Z,22.40
2022-12-04T17:19:04.112Z,23.13
2022-12-04T17:21:34.236Z,19.17
2022-12-04T17:24:02.174Z,17.13
2022-12-04T17:26:29.969Z,19.17
2022-12-04T17:28:57.526Z,17.93
2022-12-04T17:31:26.469Z,17.60
2022-12-04T17:33:54.232Z,17.27
2022-12-04T17:36:25.183Z,19.73
2022-12-04T17:38:55.659Z,17.90
2022-12-04T17:41:23.515Z,16.90
2022-12-04T17:43:51.557Z,18.33
2022-12-04T17:46:21.803Z,19.07
2022-12-04T17:48:49.836Z,17.67
2022-12-04T17:51:19.422Z,18.27
2022-12-04T17:53:47.114Z,18.87
2022-12-04T17:56:18.262Z,19.47
2022-12-04T17:58:46.640Z,17.53
2022-12-04T18:01:16.132Z,16.47
2022-12-04T18:03:44.478Z,19.00
2022-12-04T18:06:13.374Z,16.80
2022-12-04T18:08:44.066Z,16.50
2022-12-04T18:11:17.520Z,16.43
2022-12-04T18:13:45.344Z,17.43
2022-12-04T18:16:13.176Z,19.20
2022-12-04T18:18:41.037Z,18.23
2022-12-04T18:21:10.375Z,17.57
2022-12-04T18:23:40.197Z,20.07
2022-12-04T18:26:08.568Z,18.17
2022-12-04T18:28:38.146Z,15.20
2022-12-04T18:31:07.575Z,18.10
2022-12-04T18:33:37.324Z,17.77
2022-12-04T18:36:05.688Z,16.30
2022-12-04T18:38:33.951Z,17.23
2022-12-04T18:41:03.391Z,15.70
2022-12-04T18:43:34.690Z,19.37
2022-12-04T18:46:08.246Z,18.83
2022-12-04T18:48:36.947Z,18.07
2022-12-04T18:51:17.232Z,15.23
2022-12-04T18:53:48.140Z,19.37
2022-12-04T18:56:16.313Z,20.57
2022-12-04T18:58:45.386Z,17.20
2022-12-04T19:01:17.311Z,18.07
2022-12-04T19:03:45.678Z,19.07
2022-12-04T19:06:13.763Z,20.03
2022-12-04T19:08:43.462Z,19.03
2022-12-04T19:11:13.674Z,20.37
2022-12-04T19:13:41.558Z,22.33
2022-12-04T19:16:12.282Z,21.63
2022-12-04T19:18:42.125Z,24.83
2022-12-04T19:21:10.007Z,20.50
2022-12-04T19:23:37.850Z,20.83
2022-12-04T19:26:05.742Z,18.70
2022-12-04T19:28:33.555Z,19.47
2022-12-04T19:31:01.470Z,20.13
2022-12-04T19:33:29.485Z,19.30
2022-12-04T19:35:59.579Z,18.47
2022-12-04T19:38:29.108Z,21.03
2022-12-04T19:41:04.815Z,20.73
2022-12-04T19:43:33.002Z,21.17
2022-12-04T19:46:00.709Z,20.47
2022-12-04T19:48:28.686Z,19.60
2022-12-04T19:50:56.567Z,21.40
2022-12-04T19:53:25.540Z,21.57
2022-12-04T19:55:53.256Z,19.43
2022-12-04T19:58:21.041Z,20.60
2022-12-04T20:00:49.777Z,24.97
2022-12-04T20:03:19.232Z,20.50
2022-12-04T20:05:47.637Z,22.93
2022-12-04T20:08:15.373Z,21.80
2022-12-04T20:10:44.558Z,21.20
2022-12-04T20:13:13.238Z,19.03
2022-12-04T20:15:41.260Z,21.00
2022-12-04T20:18:08.915Z,20.10
2022-12-04T20:20:37.154Z,21.73
2022-12-04T20:23:04.905Z,21.63
2022-12-04T20:25:32.685Z,21.20
2022-12-04T20:28:01.891Z,22.83
2022-12-04T20:30:30.321Z,21.93
2022-12-04T20:32:58.522Z,22.93
2022-12-04T20:35:26.260Z,21.97
2022-12-04T20:37:53.990Z,23.70
2022-12-04T20:40:21.729Z,23.00
2022-12-04T20:42:49.647Z,22.00
2022-12-04T20:45:19.005Z,20.73
2022-12-04T20:47:46.979Z,21.23
2022-12-04T20:50:14.627Z,21.53
2022-12-04T20:52:42.334Z,21.80
2022-12-04T20:55:10.963Z,24.93
2022-12-04T20:57:38.790Z,21.53
2022-12-04T21:00:07.838Z,20.30
2022-12-04T21:02:37.257Z,22.80
2022-12-04T21:05:05.523Z,28.27
2022-12-04T21:07:33.247Z,20.07
2022-12-04T21:10:01.377Z,26.17
2022-12-04T21:12:46.442Z,28.67
2022-12-04T21:15:31.901Z,22.70
2022-12-04T21:18:02.845Z,20.63
2022-12-04T21:20:30.528Z,19.73
2022-12-04T21:22:59.127Z,21.67
2022-12-04T21:25:27.808Z,20.90
2022-12-04T21:27:55.567Z,22.83
2022-12-04T21:30:23.587Z,21.13
2022-12-04T21:32:51.271Z,21.47
2022-12-04T21:35:20.999Z,22.03
2022-12-04T21:37:49.793Z,24.43
2022-12-04T21:40:17.558Z,23.40
2022-12-04T21:42:45.195Z,24.70
2022-12-04T21:45:12.882Z,21.87
2022-12-04T21:47:40.562Z,24.37
2022-12-04T21:50:09.782Z,23.33
2022-12-04T21:52:39.193Z,26.13
2022-12-04T21:55:07.333Z,25.87
2022-12-04T21:57:35.084Z,20.80
2022-12-04T22:00:04.080Z,21.77
2022-12-04T22:02:32.482Z,20.17
2022-12-04T22:05:00.221Z,18.40
2022-12-04T22:07:28.837Z,18.37
2022-12-04T22:09:58.650Z,20.10
2022-12-04T22:12:48.620Z,17.40
2022-12-04T22:15:14.779Z,25.77
2022-12-04T22:17:42.819Z,27.33
2022-12-04T22:20:11.033Z,27.13
2022-12-04T22:22:38.800Z,22.23
2022-12-04T22:25:08.527Z,22.10
2022-12-04T22:27:36.143Z,18.53
2022-12-04T22:30:04.895Z,17.30
2022-12-04T22:32:32.935Z,20.63
2022-12-04T22:35:00.580Z,20.93
2022-12-04T22:37:28.278Z,18.73
2022-12-04T22:39:56.403Z,19.93
2022-12-04T22:42:26.270Z,15.87
2022-12-04T22:44:53.967Z,19.97
2022-12-04T22:47:21.799Z,17.13
2022-12-04T22:49:49.591Z,17.07
2022-12-04T22:52:17.644Z,17.37
2022-12-04T22:54:45.205Z,20.93
2022-12-04T22:57:13.490Z,16.23
2022-12-04T22:59:42.616Z,18.63
2022-12-04T23:02:10.275Z,16.80
2022-12-04T23:04:38.025Z,17.93
2022-12-04T23:07:06.189Z,14.83
2022-12-04T23:09:34.040Z,16.33
2022-12-04T23:12:01.713Z,14.57
2022-12-04T23:14:29.928Z,17.53
2022-12-04T23:16:59.221Z,16.67
2022-12-04T23:19:27.058Z,16.83
2022-12-04T23:21:57.196Z,20.63
2022-12-04T23:24:25.434Z,18.47
2022-12-04T23:26:53.160Z,19.43
2022-12-04T23:29:51.430Z,17.20
2022-12-04T23:32:09.713Z,17.23
2022-12-04T23:34:37.418Z,24.30
2022-12-04T23:37:05.140Z,19.03
2022-12-04T23:39:32.946Z,18.57
2022-12-04T23:42:01.012Z,19.90
2022-12-04T23:44:29.048Z,18.30
2022-12-04T23:46:56.897Z,18.93
2022-12-04T23:49:26.353Z,18.70
2022-12-04T23:51:54.151Z,19.03
2022-12-04T23:54:21.849Z,18.03
2022-12-04T23:56:49.604Z,17.83
2022-12-04T23:59:17.348Z,17.57
